ADDS METAR Data INFO
IDs: Format: Raw Decoded Include TAF

Data at: 0315 UTC 22 Apr 2018

KOGS 220255Z AUTO 00000KT 10SM CLR 03/00 A3035 RMK AO2 T00271001
KOGS 220235Z AUTO 00000KT 10SM CLR 03/00 A3035 RMK AO2 T00341004
KOGS 220215Z AUTO 20003KT 10SM CLR 05/00 A3035 RMK AO2 T00471002
KOGS 220155Z AUTO 20004KT 10SM CLR 05/00 A3035 RMK AO2 T00451003
KOGS 220135Z AUTO 19004KT 10SM CLR 04/M01 A3035 RMK AO2 T00381008
KOGS 220115Z AUTO 20003KT 10SM CLR 05/00 A3035 RMK AO2 T00460000
KOGS 220055Z AUTO 00000KT 10SM CLR 05/00 A3035 RMK AO2 T00510003
KOGS 220035Z AUTO 00000KT 10SM CLR 06/M04 A3035 RMK AO2 T00571036
KOGS 220015Z AUTO 00000KT 10SM CLR 08/M07 A3035 RMK AO2 T00751066
KOGS 212355Z AUTO 33003KT 10SM CLR 09/M08 A3034 RMK AO2 T00901081 10139 20090
KOGS 212335Z AUTO 34004KT 10SM CLR 10/M07 A3034 RMK AO2 T01041073
KOGS 212315Z AUTO 34007KT 10SM CLR 11/M08 A3033 RMK AO2 T01121079
KOGS 212255Z AUTO 33007KT 10SM CLR 12/M07 A3032 RMK AO2 T01201072
KOGS 212235Z AUTO 34010G15KT 10SM CLR 12/M07 A3032 RMK AO2 T01211075
KOGS 212215Z AUTO 33007G15KT 10SM CLR 13/M07 A3032 RMK AO2 T01271075
KOGS 212155Z AUTO 31007G17KT 10SM CLR 13/M07 A3031 RMK AO2 T01331070
KOGS 212135Z AUTO 29010G16KT 10SM CLR 13/M07 A3031 RMK AO2 T01341075
KOGS 212115Z AUTO 30008G16KT 10SM CLR 14/M07 A3031 RMK AO2 T01371073
KOGS 212055Z AUTO 31008KT 10SM CLR 14/M07 A3031 RMK AO2 T01371071
KOGS 212035Z AUTO 28013KT 10SM CLR 14/M08 A3031 RMK AO2 T01381078
KOGS 212015Z AUTO 30008G17KT 10SM CLR 14/M08 A3031 RMK AO2 T01381079
KOGS 211955Z AUTO 30012G15KT 10SM CLR 14/M07 A3031 RMK AO2 T01351075
KOGS 211935Z AUTO 32011G16KT 10SM CLR 14/M07 A3032 RMK AO2 T01361068
KOGS 211915Z AUTO 31009KT 10SM CLR 13/M06 A3032 RMK AO2 T01341064
KOGS 211855Z AUTO 29008KT 10SM CLR 13/M06 A3033 RMK AO2 T01331064
KOGS 211835Z AUTO 29010G16KT 10SM CLR 13/M06 A3033 RMK AO2 T01321062
KOGS 211815Z AUTO 30007G16KT 10SM CLR 13/M06 A3034 RMK AO2 T01281059
KOGS 211755Z AUTO 28012G15KT 260V320 10SM CLR 13/M06 A3035 RMK AO2 T01251060 10125 20033
KOGS 211735Z AUTO 32009G16KT 10SM CLR 12/M06 A3035 RMK AO2 T01211060
KOGS 211715Z AUTO 28005KT 10SM CLR 12/M06 A3036 RMK AO2 T01171058
KOGS 211655Z AUTO 32009KT 10SM CLR 11/M05 A3037 RMK AO2 T01141054
KOGS 211635Z AUTO 32009G14KT 280V340 10SM CLR 11/M05 A3037 RMK AO2 T01121055
KOGS 211615Z AUTO 30011G17KT 10SM CLR 11/M06 A3039 RMK AO2 T01071058
KOGS 211555Z AUTO 29010G15KT 10SM CLR 10/M06 A3039 RMK AO2 T01021060
KOGS 211535Z AUTO 30010G16KT 10SM CLR 10/M06 A3040 RMK AO2 T01001056
KOGS 211515Z AUTO 29009G14KT 10SM CLR 10/M05 A3040 RMK AO2 T00981046
KOGS 211455Z AUTO 29010G14KT 10SM CLR 09/M05 A3041 RMK AO2 T00911053
KOGS 211435Z AUTO 30009KT 10SM CLR 09/M05 A3041 RMK AO2 T00911049
KOGS 211415Z AUTO 29009KT 10SM CLR 09/M05 A3041 RMK AO2 T00861052
KOGS 211355Z AUTO 29009KT 10SM CLR 08/M05 A3041 RMK AO2 T00841046
KOGS 211335Z AUTO 28007KT 10SM CLR 08/M03 A3041 RMK AO2 T00781031
KOGS 211315Z AUTO 27004KT 10SM CLR 06/M03 A3040 RMK AO2 T00631034
KOGS 211255Z AUTO 29004KT 10SM CLR 05/M04 A3040 RMK AO2 T00511038
KOGS 211235Z AUTO 30006KT 10SM CLR 05/M04 A3039 RMK AO2 T00491036
KOGS 211215Z AUTO 31004KT 10SM CLR 04/M03 A3039 RMK AO2 T00421035
KOGS 211155Z AUTO 31004KT 10SM CLR 03/M03 A3039 RMK AO2 T00301034 10030 21020
KOGS 211135Z AUTO 31003KT 10SM CLR 03/M03 A3039 RMK AO2 T00261035
KOGS 211115Z AUTO 31004KT 10SM CLR 02/M04 A3038 RMK AO2 T00201037
KOGS 211055Z AUTO 30003KT 10SM CLR 01/M03 A3038 RMK AO2 T00091034
KOGS 211035Z AUTO 00000KT 10SM CLR M01/M03 A3037 RMK AO2 T10061031
KOGS 211015Z AUTO 00000KT 10SM CLR M02/M04 A3037 RMK AO2 T10181038
KOGS 210955Z AUTO 00000KT 10SM CLR M02/M04 A3037 RMK AO2 T10201041
KOGS 210935Z AUTO 00000KT 10SM CLR M01/M04 A3037 RMK AO2 T10111038
KOGS 210915Z AUTO 00000KT 10SM CLR M01/M04 A3037 RMK AO2 T10101039
KOGS 210855Z AUTO 29004KT 10SM CLR 00/M04 A3037 RMK AO2 T10051037
KOGS 210835Z AUTO 29003KT 10SM CLR 00/M03 A3036 RMK AO2 T00001035
KOGS 210815Z AUTO 30005KT 10SM CLR 00/M03 A3036 RMK AO2 T00001035
KOGS 210755Z AUTO 30004KT 10SM CLR 00/M03 A3036 RMK AO2 T00001032
KOGS 210735Z AUTO 30004KT 10SM CLR 00/M03 A3036 RMK AO2 T10031033
KOGS 210715Z AUTO 28004KT 10SM CLR 00/M03 A3036 RMK AO2 T10051027
KOGS 210655Z AUTO 32003KT 10SM CLR 00/M03 A3035 RMK AO2 T10021026
KOGS 210635Z AUTO 31003KT 10SM CLR 00/M02 A3035 RMK AO2 T10051023
KOGS 210615Z AUTO 00000KT 10SM CLR 00/M02 A3035 RMK AO2 T00001016
KOGS 210555Z AUTO 00000KT 10SM CLR M01/M02 A3035 RMK AO2 T10101025 10071 21010
KOGS 210535Z AUTO 00000KT 10SM CLR M01/M03 A3035 RMK AO2 T10101027
KOGS 210515Z AUTO 00000KT 10SM CLR 00/M02 A3035 RMK AO2 T00001016
KOGS 210455Z AUTO 00000KT 10SM CLR 00/M02 A3034 RMK AO2 T00001019
KOGS 210435Z AUTO 21003KT 10SM CLR 00/M02 A3034 RMK AO2 T10021024
KOGS 210415Z AUTO 00000KT 10SM CLR 00/M02 A3034 RMK AO2 T00001022
KOGS 210355Z AUTO 00000KT 10SM CLR 00/M02 A3034 RMK AO2 T00001025 400911005
KOGS 210335Z AUTO 00000KT 10SM CLR 00/M02 A3033 RMK AO2 T00021025
KOGS 210315Z AUTO 00000KT 10SM CLR 01/M02 A3033 RMK AO2 T00051022
KOGS 210255Z AUTO 00000KT 10SM CLR 01/M02 A3033 RMK AO2 T00111023
KOGS 210235Z AUTO 27003KT 10SM CLR 03/M01 A3033 RMK AO2 T00251011
KOGS 210215Z AUTO 29004KT 10SM SCT070 03/M02 A3032 RMK AO2 T00321020
KOGS 210155Z AUTO 28004KT 10SM CLR 04/M02 A3032 RMK AO2 T00391022
KOGS 210135Z AUTO 27004KT 10SM SCT070 05/M02 A3032 RMK AO2 T00481022
KOGS 210115Z AUTO 27004KT 10SM BKN070 06/M02 A3032 RMK AO2 T00551022
KOGS 210055Z AUTO 27004KT 10SM BKN070 06/M02 A3032 RMK AO2 T00601021
KOGS 210035Z AUTO 28005KT 10SM OVC070 07/M02 A3031 RMK AO2 T00651023
KOGS 210015Z AUTO 27004KT 10SM OVC070 07/M02 A3030 RMK AO2 T00661023
KOGS 202355Z AUTO 27004KT 10SM BKN070 08/M02 A3030 RMK AO2 T00751025 10091 20052
KOGS 202335Z AUTO 28005KT 10SM BKN070 08/M03 A3029 RMK AO2 T00791031
KOGS 202315Z AUTO 30008KT 10SM SCT070 08/M04 A3028 RMK AO2 T00831036
KOGS 202255Z AUTO 30009KT 10SM BKN070 09/M04 A3028 RMK AO2 T00861036
KOGS 202235Z AUTO 30009G14KT 10SM SCT070 SCT085 08/M03 A3028 RMK AO2 T00831033
KOGS 202215Z AUTO 29008G14KT 10SM SCT070 SCT085 08/M03 A3028 RMK AO2 T00831031
KOGS 202155Z AUTO 29009KT 10SM SCT060 09/M03 A3027 RMK AO2 T00851029
KOGS 202135Z AUTO 28007KT 10SM BKN060 09/M02 A3027 RMK AO2 T00871023
KOGS 202115Z AUTO 28007G14KT 10SM BKN060 08/M02 A3026 RMK AO2 T00831024
KOGS 202055Z AUTO 29010G17KT 10SM SCT050 BKN065 09/M03 A3026 RMK AO2 T00861026
KOGS 202035Z AUTO 29010KT 10SM BKN060 09/M02 A3026 RMK AO2 T00851025
KOGS 202015Z AUTO 30010KT 260V330 10SM SCT060 SCT120 08/M03 A3025 RMK AO2 T00841027
KOGS 201955Z AUTO 30011G14KT 10SM SCT047 SCT060 09/M02 A3025 RMK AO2 T00851021
KOGS 201935Z AUTO 29009G16KT 10SM BKN049 08/M02 A3025 RMK AO2 T00761020
KOGS 201915Z AUTO 30007KT 10SM BKN049 08/M02 A3025 RMK AO2 T00751022
KOGS 201855Z AUTO 30008KT 10SM SCT043 BKN049 07/M02 A3025 RMK AO2 T00701023
KOGS 201835Z AUTO 29009KT 10SM SCT036 BKN042 BKN049 07/M02 A3026 RMK AO2 T00711019
KOGS 201815Z AUTO 30007KT 10SM BKN036 BKN044 06/M01 A3026 RMK AO2 T00641013
KOGS 201755Z AUTO 27008KT 10SM OVC034 05/M02 A3026 RMK AO2 T00521021 10062 20002
KOGS 201735Z AUTO 29008KT 10SM OVC034 05/M02 A3026 RMK AO2 T00541022
KOGS 201715Z AUTO 28004KT 10SM OVC032 05/M02 A3026 RMK AO2 T00541021
KOGS 201655Z AUTO 32008G15KT 10SM OVC032 05/M02 A3027 RMK AO2 T00471022
KOGS 201635Z AUTO 30007KT 10SM OVC030 04/M02 A3026 RMK AO2 T00431025
KOGS 201615Z AUTO 30010G14KT 10SM OVC030 04/M02 A3026 RMK AO2 T00391024
KOGS 201555Z AUTO 29009KT 10SM OVC030 04/M03 A3026 RMK AO2 T00351027
KOGS 201535Z AUTO 30009G15KT 10SM OVC030 03/M03 A3025 RMK AO2 T00321028